createdAt,value
2018-06-05T00:00:43.001Z,63.54
2018-06-05T00:03:08.978Z,64.37
2018-06-05T00:05:34.953Z,64.93
2018-06-05T00:08:00.981Z,63.55
2018-06-05T00:10:27.040Z,63.79
2018-06-05T00:12:53.009Z,64.76
2018-06-05T00:15:18.972Z,64.45
2018-06-05T00:17:45.005Z,63.64
2018-06-05T00:20:10.977Z,64.22
2018-06-05T00:22:36.968Z,64.76
2018-06-05T00:25:02.929Z,64.58
2018-06-05T00:30:01.383Z,64.65
2018-06-05T00:32:27.354Z,64.53
2018-06-05T00:34:53.359Z,63.92
2018-06-05T00:37:19.330Z,63.78
2018-06-05T00:39:45.321Z,64.08
2018-06-05T00:42:11.304Z,64.27
2018-06-05T00:44:37.307Z,64.11
2018-06-05T00:47:03.294Z,63.86
2018-06-05T00:49:30.353Z,64.65
2018-06-05T00:51:56.342Z,64.78
2018-06-05T00:54:22.294Z,64.64
2018-06-05T00:56:48.285Z,64.12
2018-06-05T00:59:14.371Z,64.70
2018-06-05T01:01:40.358Z,64.63
2018-06-05T01:04:06.372Z,63.96
2018-06-05T01:06:32.343Z,64.09
2018-06-05T01:08:58.328Z,63.80
2018-06-05T01:11:24.360Z,64.49
2018-06-05T01:13:50.313Z,64.20
2018-06-05T01:16:16.295Z,64.42
2018-06-05T01:18:42.268Z,64.56
2018-06-05T01:21:08.225Z,64.95
2018-06-05T01:23:34.217Z,64.14
2018-06-05T01:26:00.188Z,63.86
2018-06-05T01:28:26.165Z,64.29
2018-06-05T01:30:52.137Z,64.70
2018-06-05T01:33:18.112Z,64.38
2018-06-05T01:35:44.074Z,63.88
2018-06-05T01:38:10.063Z,63.91
2018-06-05T01:40:36.027Z,64.87
2018-06-05T01:43:02.007Z,63.96
2018-06-05T01:45:27.988Z,63.64
2018-06-05T01:47:53.939Z,64.27
2018-06-05T01:50:19.942Z,64.89
2018-06-05T01:52:45.900Z,64.62
2018-06-05T01:55:11.918Z,64.26
2018-06-05T01:57:37.872Z,64.07
2018-06-05T02:00:03.831Z,64.49
2018-06-05T02:02:29.787Z,64.32
2018-06-05T02:04:55.765Z,64.03
2018-06-05T02:07:21.728Z,64.12
2018-06-05T02:09:47.707Z,63.70
2018-06-05T02:12:13.708Z,64.36
2018-06-05T02:14:39.664Z,64.52
2018-06-05T02:17:05.623Z,64.64
2018-06-05T02:19:32.621Z,64.48
2018-06-05T02:21:58.590Z,63.89
2018-06-05T02:24:24.561Z,63.94
2018-06-05T02:26:50.556Z,63.86
2018-06-05T02:29:16.544Z,64.94
2018-06-05T02:31:42.526Z,64.46
2018-06-05T02:34:08.526Z,65.15
2018-06-05T02:36:34.482Z,64.05
2018-06-05T02:39:00.434Z,64.53
2018-06-05T02:41:26.417Z,63.90
2018-06-05T02:43:52.390Z,64.28
2018-06-05T02:46:18.373Z,64.34
2018-06-05T02:48:44.372Z,65.04
2018-06-05T02:51:10.354Z,64.85
2018-06-05T02:53:36.302Z,64.75
2018-06-05T02:56:02.299Z,64.49
2018-06-05T02:58:28.731Z,64.01
2018-06-05T03:00:54.730Z,64.78
2018-06-05T03:03:20.712Z,63.72
2018-06-05T03:05:46.684Z,64.56
2018-06-05T03:08:12.692Z,64.81
2018-06-05T03:10:38.670Z,64.60
2018-06-05T03:13:04.644Z,63.91
2018-06-05T03:15:30.612Z,63.64
2018-06-05T03:17:56.625Z,64.96
2018-06-05T03:20:22.611Z,65.32
2018-06-05T03:22:48.601Z,65.15
2018-06-05T03:25:14.591Z,65.03
2018-06-05T03:27:40.545Z,63.98
2018-06-05T03:30:06.573Z,64.05
2018-06-05T03:32:32.538Z,64.42
2018-06-05T03:34:58.522Z,64.56
2018-06-05T03:37:24.495Z,64.66
2018-06-05T03:39:50.454Z,64.10
2018-06-05T03:42:16.452Z,64.02
2018-06-05T03:44:42.439Z,63.95
2018-06-05T03:47:08.421Z,64.74
2018-06-05T03:49:34.398Z,64.35
2018-06-05T03:52:00.417Z,63.50
2018-06-05T03:54:27.447Z,64.45
2018-06-05T03:56:53.418Z,64.40
2018-06-05T03:59:19.387Z,64.73
2018-06-05T04:01:45.336Z,63.66
2018-06-05T04:04:11.302Z,63.36
2018-06-05T04:06:37.274Z,64.51
2018-06-05T04:09:04.342Z,64.63
2018-06-05T04:11:30.311Z,64.54
2018-06-05T04:13:56.294Z,65.31
2018-06-05T04:16:22.814Z,64.87
2018-06-05T04:18:48.805Z,64.62
2018-06-05T04:21:14.786Z,64.48
2018-06-05T04:23:40.752Z,64.36
2018-06-05T04:26:06.745Z,64.35
2018-06-05T04:28:32.688Z,64.96
2018-06-05T04:30:58.642Z,64.57
2018-06-05T04:33:24.613Z,64.56
2018-06-05T04:35:50.637Z,64.47
2018-06-05T04:38:16.609Z,64.81
2018-06-05T04:40:42.634Z,64.50
2018-06-05T04:43:08.608Z,65.10
2018-06-05T04:45:34.576Z,63.64
2018-06-05T04:48:00.572Z,64.61
2018-06-05T04:50:26.665Z,64.11
2018-06-05T04:52:52.671Z,65.12
2018-06-05T04:55:18.640Z,65.40
2018-06-05T04:57:44.597Z,64.61
2018-06-05T05:00:10.572Z,64.65
2018-06-05T05:02:36.543Z,64.85
2018-06-05T05:05:02.527Z,64.31
2018-06-05T05:07:28.504Z,64.17
2018-06-05T05:09:54.490Z,64.67
2018-06-05T05:12:20.460Z,64.39
2018-06-05T05:14:46.460Z,65.05
2018-06-05T05:17:12.434Z,64.87
2018-06-05T05:19:38.397Z,64.60
2018-06-05T05:22:04.367Z,64.46
2018-06-05T05:24:30.334Z,64.98
2018-06-05T05:26:56.344Z,63.75
2018-06-05T05:29:22.357Z,65.04
2018-06-05T05:31:48.331Z,64.19
2018-06-05T05:34:14.310Z,64.38
2018-06-05T05:36:40.280Z,64.63
2018-06-05T05:39:06.275Z,65.19
2018-06-05T05:41:32.223Z,64.59
2018-06-05T05:43:58.194Z,64.26
2018-06-05T05:46:24.158Z,64.65
2018-06-05T05:48:51.261Z,64.28
2018-06-05T05:51:17.353Z,63.92
2018-06-05T05:53:43.428Z,64.72
2018-06-05T05:56:09.409Z,64.12
2018-06-05T05:58:35.443Z,65.15
2018-06-05T06:01:01.436Z,64.37
2018-06-05T06:03:27.418Z,63.55
2018-06-05T06:05:53.436Z,64.92
2018-06-05T06:08:20.479Z,64.22
2018-06-05T06:10:46.654Z,64.41
2018-06-05T06:13:12.593Z,64.83
2018-06-05T06:15:38.588Z,64.47
2018-06-05T06:18:04.551Z,63.81
2018-06-05T06:20:30.527Z,65.46
2018-06-05T06:22:56.481Z,64.17
2018-06-05T06:25:22.484Z,63.71
2018-06-05T06:27:48.557Z,63.57
2018-06-05T06:30:14.537Z,63.99
2018-06-05T06:32:40.504Z,64.55
2018-06-05T06:35:06.469Z,63.38
2018-06-05T06:37:32.450Z,63.96
2018-06-05T06:39:58.411Z,64.59
2018-06-05T06:42:24.372Z,64.78
2018-06-05T06:44:50.327Z,62.25
2018-06-05T06:47:16.303Z,60.78
2018-06-05T06:49:42.319Z,59.45
2018-06-05T06:52:08.276Z,59.39
2018-06-05T06:54:34.300Z,59.45
2018-06-05T06:57:00.276Z,59.25
2018-06-05T06:59:26.253Z,59.11
2018-06-05T07:01:52.228Z,59.08
2018-06-05T07:04:18.207Z,58.49
2018-06-05T07:06:44.172Z,59.13
2018-06-05T07:09:10.150Z,58.31
2018-06-05T07:11:36.117Z,58.76
2018-06-05T07:14:02.074Z,57.61
2018-06-05T07:16:28.022Z,58.69
2018-06-05T07:18:54.031Z,58.83
2018-06-05T07:21:19.992Z,59.44
2018-06-05T07:23:45.947Z,58.66
2018-06-05T07:26:11.892Z,59.12
2018-06-05T07:28:37.848Z,58.89
2018-06-05T07:31:03.843Z,58.50
2018-06-05T07:33:29.804Z,58.55
2018-06-05T07:35:55.799Z,58.07
2018-06-05T07:38:21.775Z,57.57
2018-06-05T07:40:47.797Z,59.73
2018-06-05T07:43:13.784Z,59.55
2018-06-05T07:45:39.775Z,58.18
2018-06-05T07:48:05.731Z,59.88
2018-06-05T07:50:31.703Z,57.54
2018-06-05T07:52:57.653Z,58.81
2018-06-05T07:55:24.683Z,58.93
2018-06-05T07:57:50.656Z,59.36
2018-06-05T08:00:16.624Z,59.76
2018-06-05T08:02:42.658Z,58.70
2018-06-05T08:05:08.620Z,58.75
2018-06-05T08:07:34.636Z,59.85
2018-06-05T08:10:00.602Z,60.87
2018-06-05T08:12:26.613Z,62.25
2018-06-05T08:14:52.580Z,60.71
2018-06-05T08:17:18.550Z,60.13
2018-06-05T08:19:44.509Z,59.19
2018-06-05T08:22:10.484Z,58.78
2018-06-05T08:24:36.451Z,60.17
2018-06-05T08:27:02.437Z,60.16
2018-06-05T08:29:28.390Z,60.05
2018-06-05T08:31:54.372Z,59.81
2018-06-05T08:34:20.344Z,60.41
2018-06-05T08:36:46.294Z,60.82
2018-06-05T08:39:12.256Z,61.59
2018-06-05T08:41:38.226Z,60.63
2018-06-05T08:44:04.186Z,61.33
2018-06-05T08:46:30.143Z,61.06
2018-06-05T08:48:57.036Z,61.17
2018-06-05T08:51:22.990Z,60.69
2018-06-05T08:53:48.960Z,61.46
2018-06-05T08:56:14.919Z,61.13
2018-06-05T08:58:40.883Z,60.92
2018-06-05T09:01:06.862Z,63.07
2018-06-05T09:03:32.852Z,62.42
2018-06-05T09:05:58.818Z,62.38
2018-06-05T09:08:24.780Z,61.95
2018-06-05T09:10:50.807Z,62.06
2018-06-05T09:13:16.788Z,61.64
2018-06-05T09:15:42.769Z,62.85
2018-06-05T09:18:08.761Z,61.42
2018-06-05T09:20:34.736Z,63.18
2018-06-05T09:23:00.721Z,61.04
2018-06-05T09:25:26.689Z,59.88
2018-06-05T09:27:52.666Z,58.94
2018-06-05T09:30:18.656Z,59.25
2018-06-05T09:32:44.628Z,59.78
2018-06-05T09:35:10.611Z,59.70
2018-06-05T09:37:36.650Z,59.42
2018-06-05T09:40:02.630Z,59.64
2018-06-05T09:42:28.589Z,60.17
2018-06-05T09:44:54.556Z,59.49
2018-06-05T09:47:20.531Z,58.59
2018-06-05T09:49:46.492Z,59.58
2018-06-05T09:52:12.467Z,59.13
2018-06-05T09:54:38.453Z,59.17
2018-06-05T09:57:04.519Z,59.40
2018-06-05T09:59:30.470Z,60.26
2018-06-05T10:01:56.440Z,59.31
2018-06-05T10:04:22.645Z,59.13
2018-06-05T10:06:48.663Z,59.28
2018-06-05T10:09:14.660Z,60.26
2018-06-05T10:11:40.622Z,59.67
2018-06-05T10:14:06.641Z,59.83
2018-06-05T10:16:32.615Z,58.41
2018-06-05T10:18:58.591Z,60.83
2018-06-05T10:21:24.584Z,60.17
2018-06-05T10:23:50.549Z,59.92
2018-06-05T10:26:16.522Z,60.11
2018-06-05T10:28:42.503Z,58.94
2018-06-05T10:31:08.465Z,59.44
2018-06-05T10:33:34.436Z,59.97
2018-06-05T10:36:00.388Z,58.97
2018-06-05T10:38:26.378Z,59.84
2018-06-05T10:40:52.352Z,59.74
2018-06-05T10:43:18.308Z,58.69
2018-06-05T10:45:44.331Z,59.32
2018-06-05T10:48:10.314Z,60.19
2018-06-05T10:50:36.394Z,59.62
2018-06-05T10:53:02.352Z,60.38
2018-06-05T10:55:28.351Z,60.01
2018-06-05T10:57:54.304Z,58.93
2018-06-05T11:00:20.279Z,59.77
2018-06-05T11:02:46.241Z,60.46
2018-06-05T11:05:12.261Z,60.50
2018-06-05T11:07:38.226Z,59.50
2018-06-05T11:10:04.208Z,60.46
2018-06-05T11:12:30.167Z,60.89
2018-06-05T11:14:56.141Z,59.59
2018-06-05T11:17:22.133Z,61.17
2018-06-05T11:19:48.109Z,61.03
2018-06-05T11:22:14.084Z,61.64
2018-06-05T11:24:40.052Z,61.61
2018-06-05T11:27:06.017Z,61.39
2018-06-05T11:29:32.007Z,61.22
2018-06-05T11:31:57.967Z,63.05
2018-06-05T11:34:23.929Z,61.55
2018-06-05T11:36:49.929Z,61.38
2018-06-05T11:39:15.956Z,60.57
2018-06-05T11:41:41.934Z,61.90
2018-06-05T11:44:07.922Z,60.87
2018-06-05T11:46:34.001Z,60.57
2018-06-05T11:48:59.991Z,61.49
2018-06-05T11:51:25.948Z,61.41
2018-06-05T11:53:51.926Z,61.77
2018-06-05T11:56:17.893Z,61.99
2018-06-05T11:58:43.865Z,61.84
2018-06-05T12:01:09.831Z,62.00
2018-06-05T12:03:35.825Z,61.48
2018-06-05T12:06:01.784Z,62.40
2018-06-05T12:08:27.758Z,61.87
2018-06-05T12:10:53.736Z,63.33
2018-06-05T12:13:19.724Z,62.36
2018-06-05T12:15:45.704Z,63.67
2018-06-05T12:18:11.653Z,63.77
2018-06-05T12:20:37.676Z,63.21
2018-06-05T12:23:03.641Z,63.27
2018-06-05T12:25:29.616Z,62.67
2018-06-05T12:27:57.460Z,63.28
2018-06-05T12:30:23.429Z,62.85
2018-06-05T12:32:49.433Z,62.46
2018-06-05T12:35:15.383Z,63.28
2018-06-05T12:37:41.409Z,62.70
2018-06-05T12:40:07.368Z,62.68
2018-06-05T12:42:33.527Z,61.86
2018-06-05T12:44:59.532Z,62.29
2018-06-05T12:47:25.534Z,62.37
2018-06-05T12:49:51.513Z,62.67
2018-06-05T12:52:17.482Z,62.71
2018-06-05T12:54:43.490Z,62.56
2018-06-05T12:57:09.467Z,62.60
2018-06-05T12:59:35.519Z,61.87
2018-06-05T13:02:01.497Z,62.58
2018-06-05T13:04:27.476Z,62.25
2018-06-05T13:06:53.512Z,62.63
2018-06-05T13:09:19.472Z,61.74
2018-06-05T13:11:45.461Z,62.70
2018-06-05T13:14:11.501Z,62.62
2018-06-05T13:16:37.489Z,61.17
2018-06-05T13:19:03.525Z,62.29
2018-06-05T13:21:29.492Z,63.16
2018-06-05T13:23:55.473Z,62.23
2018-06-05T13:26:21.569Z,63.27
2018-06-05T13:28:47.557Z,62.57
2018-06-05T13:31:13.553Z,63.48
2018-06-05T13:33:39.519Z,63.41
2018-06-05T13:36:05.498Z,64.04
2018-06-05T13:38:31.469Z,62.94
2018-06-05T13:40:57.433Z,62.16
2018-06-05T13:43:23.401Z,62.49
2018-06-05T13:45:49.388Z,63.24
2018-06-05T13:48:15.392Z,63.96
2018-06-05T13:50:41.391Z,62.64
2018-06-05T13:53:07.348Z,63.13
2018-06-05T13:55:33.373Z,62.84
2018-06-05T13:57:59.375Z,62.79
2018-06-05T14:00:25.342Z,62.76
2018-06-05T14:02:51.338Z,62.86
2018-06-05T14:05:17.282Z,61.99
2018-06-05T14:07:43.246Z,62.63
2018-06-05T14:10:09.314Z,62.98
2018-06-05T14:12:35.294Z,62.81
2018-06-05T14:15:01.302Z,62.64
2018-06-05T14:17:27.347Z,62.58
2018-06-05T14:19:53.316Z,63.42
2018-06-05T14:22:19.282Z,62.65
2018-06-05T14:24:45.283Z,63.11
2018-06-05T14:27:11.284Z,62.80
2018-06-05T14:29:37.379Z,62.74
2018-06-05T14:32:03.336Z,62.45
2018-06-05T14:34:29.465Z,62.27
2018-06-05T14:36:55.435Z,62.60
2018-06-05T14:39:21.388Z,61.93
2018-06-05T14:41:47.393Z,62.47
2018-06-05T14:44:13.352Z,62.79
2018-06-05T14:46:39.368Z,62.57
2018-06-05T14:49:05.318Z,63.28
2018-06-05T14:51:31.286Z,63.17
2018-06-05T14:53:57.265Z,63.13
2018-06-05T14:56:23.265Z,62.93
2018-06-05T14:58:49.264Z,61.93
2018-06-05T15:01:15.229Z,62.47
2018-06-05T15:03:41.274Z,62.24
2018-06-05T15:06:07.356Z,61.87
2018-06-05T15:08:33.316Z,61.64
2018-06-05T15:10:59.368Z,61.84
2018-06-05T15:13:25.335Z,62.60
2018-06-05T15:15:51.325Z,61.84
2018-06-05T15:18:17.351Z,63.24
2018-06-05T15:20:43.329Z,63.13
2018-06-05T15:23:09.316Z,63.49
2018-06-05T15:25:35.305Z,62.42
2018-06-05T15:28:01.283Z,62.08
2018-06-05T15:30:27.374Z,62.03
2018-06-05T15:32:53.335Z,63.13
2018-06-05T15:35:19.339Z,62.83
2018-06-05T15:37:45.307Z,61.92
2018-06-05T15:40:11.263Z,62.12
2018-06-05T15:42:37.275Z,62.17
2018-06-05T15:45:03.221Z,61.44
2018-06-05T15:47:29.238Z,63.12
2018-06-05T15:49:55.229Z,62.69
2018-06-05T15:52:21.208Z,64.01
2018-06-05T15:54:47.177Z,63.50
2018-06-05T15:57:13.762Z,62.35
2018-06-05T15:59:39.748Z,62.04
2018-06-05T16:02:05.732Z,61.50
2018-06-05T16:04:31.728Z,61.31
2018-06-05T16:06:57.693Z,61.65
2018-06-05T16:09:23.699Z,60.92
2018-06-05T16:11:49.683Z,61.62
2018-06-05T16:14:15.647Z,61.54
2018-06-05T16:16:41.775Z,61.17
2018-06-05T16:19:07.871Z,61.60
2018-06-05T16:21:33.849Z,61.49
2018-06-05T16:23:59.834Z,60.81
2018-06-05T16:26:25.920Z,60.55
2018-06-05T16:28:51.856Z,60.16
2018-06-05T16:31:18.128Z,61.77
2018-06-05T16:33:45.173Z,60.17
2018-06-05T16:36:11.194Z,60.30
2018-06-05T16:38:37.221Z,59.71
2018-06-05T16:41:03.194Z,62.29
2018-06-05T16:43:29.161Z,62.64
2018-06-05T16:45:55.166Z,62.26
2018-06-05T16:48:21.147Z,60.84
2018-06-05T16:50:47.113Z,62.27
2018-06-05T16:53:13.081Z,60.13
2018-06-05T16:55:39.095Z,59.83
2018-06-05T16:58:05.073Z,60.19
2018-06-05T17:00:31.033Z,59.96
2018-06-05T17:02:57.031Z,59.45
2018-06-05T17:05:23.007Z,59.43
2018-06-05T17:07:48.974Z,60.04
2018-06-05T17:10:14.999Z,59.89
2018-06-05T17:12:40.989Z,59.71
2018-06-05T17:15:06.994Z,58.85
2018-06-05T17:17:32.956Z,58.49
2018-06-05T17:19:59.005Z,59.46
2018-06-05T17:22:25.031Z,58.22
2018-06-05T17:24:51.016Z,58.34
2018-06-05T17:27:17.068Z,60.15
2018-06-05T17:29:42.963Z,59.71
2018-06-05T17:32:09.001Z,58.88
2018-06-05T17:34:35.090Z,58.95
2018-06-05T17:37:01.077Z,58.86
2018-06-05T17:39:27.064Z,59.06
2018-06-05T17:41:53.039Z,57.95
2018-06-05T17:44:19.046Z,58.20
2018-06-05T17:46:45.026Z,57.55
2018-06-05T17:49:10.992Z,58.31
2018-06-05T17:51:38.022Z,57.84
2018-06-05T17:54:04.134Z,61.91
2018-06-05T17:56:30.120Z,58.74
2018-06-05T17:58:56.094Z,58.15
2018-06-05T18:01:22.104Z,58.54
2018-06-05T18:03:48.085Z,59.33
2018-06-05T18:06:14.061Z,59.34
2018-06-05T18:08:40.075Z,59.37
2018-06-05T18:11:06.063Z,58.38
2018-06-05T18:13:32.042Z,58.78
2018-06-05T18:15:57.996Z,59.61
2018-06-05T18:18:24.000Z,59.29
2018-06-05T18:20:49.973Z,58.56
2018-06-05T18:23:15.969Z,59.22
2018-06-05T18:25:41.923Z,59.06
2018-06-05T18:28:07.951Z,57.81
2018-06-05T18:30:35.033Z,58.49
2018-06-05T18:33:01.012Z,58.25
2018-06-05T18:35:27.043Z,58.24
2018-06-05T18:37:53.044Z,57.57
2018-06-05T18:40:19.037Z,58.78
2018-06-05T18:42:45.010Z,58.03
2018-06-05T18:45:10.998Z,58.61
2018-06-05T18:47:36.966Z,57.79
2018-06-05T18:50:02.966Z,57.36
2018-06-05T18:52:28.962Z,59.02
2018-06-05T18:54:54.966Z,58.08
2018-06-05T18:57:20.998Z,58.25
2018-06-05T18:59:47.020Z,59.25
2018-06-05T19:02:13.009Z,57.76
2018-06-05T19:04:38.978Z,57.69
2018-06-05T19:07:04.971Z,58.17
2018-06-05T19:09:30.953Z,56.97
2018-06-05T19:11:56.950Z,58.67
2018-06-05T19:14:22.939Z,57.94
2018-06-05T19:16:48.948Z,58.00
2018-06-05T19:19:14.981Z,59.10
2018-06-05T19:21:41.037Z,57.65
2018-06-05T19:24:07.023Z,58.61
2018-06-05T19:26:33.029Z,57.58
2018-06-05T19:28:58.990Z,57.17
2018-06-05T19:31:24.966Z,58.09
2018-06-05T19:33:50.958Z,59.29
2018-06-05T19:36:16.931Z,57.78
2018-06-05T19:38:42.969Z,57.98
2018-06-05T19:41:08.905Z,58.24
2018-06-05T19:43:34.913Z,57.92
2018-06-05T19:46:00.895Z,58.29
2018-06-05T19:48:26.911Z,58.15
2018-06-05T19:50:52.924Z,57.80
2018-06-05T19:53:18.997Z,57.42
2018-06-05T19:55:45.133Z,57.28
2018-06-05T19:58:11.073Z,57.60
2018-06-05T20:00:37.066Z,56.74
2018-06-05T20:03:03.334Z,58.42
2018-06-05T20:05:29.404Z,57.52
2018-06-05T20:07:55.324Z,57.80
2018-06-05T20:10:21.281Z,58.23
2018-06-05T20:12:47.251Z,58.06
2018-06-05T20:15:13.225Z,57.50
2018-06-05T20:17:39.220Z,57.85
2018-06-05T20:20:05.222Z,57.63
2018-06-05T20:22:31.200Z,56.98
2018-06-05T20:24:57.252Z,57.95
2018-06-05T20:27:23.316Z,57.32
2018-06-05T20:29:49.298Z,56.66
2018-06-05T20:32:15.322Z,58.04
2018-06-05T20:34:41.288Z,57.49
2018-06-05T20:37:07.270Z,57.88
2018-06-05T20:39:33.263Z,58.82
2018-06-05T20:41:59.294Z,57.23
2018-06-05T20:44:25.305Z,58.33
2018-06-05T20:46:51.305Z,57.79
2018-06-05T20:49:17.317Z,57.92
2018-06-05T20:51:43.343Z,57.27
2018-06-05T20:54:09.361Z,58.03
2018-06-05T20:56:35.399Z,57.54
2018-06-05T20:59:01.378Z,57.25
2018-06-05T21:01:27.358Z,58.14
2018-06-05T21:03:53.352Z,57.71
2018-06-05T21:06:19.340Z,56.78
2018-06-05T21:08:45.420Z,56.86
2018-06-05T21:11:11.399Z,56.26
2018-06-05T21:13:37.402Z,56.90
2018-06-05T21:16:03.393Z,57.28
2018-06-05T21:18:29.386Z,58.47
2018-06-05T21:20:55.361Z,56.62
2018-06-05T21:23:21.349Z,56.63
2018-06-05T21:25:47.342Z,56.47
2018-06-05T21:28:13.379Z,56.95
2018-06-05T21:30:39.422Z,57.26
2018-06-05T21:33:05.430Z,56.74
2018-06-05T21:35:31.467Z,56.35
2018-06-05T21:37:57.466Z,56.71
2018-06-05T21:40:23.541Z,56.17
2018-06-05T21:42:49.648Z,56.37
2018-06-05T21:45:15.608Z,56.29
2018-06-05T21:47:41.693Z,56.60
2018-06-05T21:50:07.700Z,56.42
2018-06-05T21:52:33.700Z,55.86
2018-06-05T21:54:59.675Z,56.96
2018-06-05T21:57:25.668Z,56.74
2018-06-05T21:59:51.660Z,56.72
2018-06-05T22:02:17.645Z,57.27
2018-06-05T22:04:43.662Z,58.54
2018-06-05T22:07:09.761Z,58.50
2018-06-05T22:09:35.994Z,57.41
2018-06-05T22:12:01.979Z,57.97
2018-06-05T22:14:27.975Z,58.14
2018-06-05T22:16:54.057Z,56.83
2018-06-05T22:19:20.565Z,58.54
2018-06-05T22:21:46.619Z,59.12
2018-06-05T22:24:12.668Z,58.21
2018-06-05T22:26:38.650Z,58.64
2018-06-05T22:29:04.651Z,59.04
2018-06-05T22:31:30.641Z,58.85
2018-06-05T22:33:56.643Z,58.82
2018-06-05T22:36:22.739Z,59.59
2018-06-05T22:38:48.729Z,59.13
2018-06-05T22:41:14.733Z,59.45
2018-06-05T22:43:40.785Z,58.83
2018-06-05T22:46:06.774Z,58.86
2018-06-05T22:48:32.747Z,58.91
2018-06-05T22:50:58.760Z,58.75
2018-06-05T22:53:24.771Z,58.32
2018-06-05T22:55:50.748Z,58.55
2018-06-05T22:58:16.738Z,58.63
2018-06-05T23:00:42.744Z,58.43
2018-06-05T23:03:08.724Z,58.41
2018-06-05T23:05:34.710Z,58.85
2018-06-05T23:08:00.678Z,59.21
2018-06-05T23:10:26.652Z,58.83
2018-06-05T23:12:52.653Z,58.65
2018-06-05T23:15:18.651Z,59.89
2018-06-05T23:17:44.644Z,58.91
2018-06-05T23:20:10.715Z,59.55
2018-06-05T23:22:36.676Z,59.38
2018-06-05T23:25:02.670Z,59.87
2018-06-05T23:27:28.653Z,59.03
2018-06-05T23:29:54.646Z,59.29
2018-06-05T23:32:20.676Z,59.15
2018-06-05T23:34:46.705Z,59.24
2018-06-05T23:37:12.802Z,59.09
2018-06-05T23:39:38.781Z,59.23
2018-06-05T23:42:04.740Z,58.98
2018-06-05T23:44:30.687Z,59.33
2018-06-05T23:46:56.676Z,58.77
2018-06-05T23:49:22.643Z,58.93
2018-06-05T23:51:48.674Z,59.48
2018-06-05T23:54:14.665Z,59.37
2018-06-05T23:56:40.635Z,59.50
2018-06-05T23:59:06.630Z,60.35
